Time;durP1;ratioP1;P1;durP2;ratioP2;P2;SDS_P1;SDS_P2;PMS_P1;PMS_P2;Temp;Humidity;BMP_temperature;BMP_pressure;BME280_temperature;BME280_humidity;BME280_pressure;Samples;Min_cycle;Max_cycle;Signal;HPM_P1;HPM_P2
2022/07/09 00:00:21;;;;;;;;;14.50;11.75;;;;;24.17;39.91;102390.72;4901208;28;45402;-47
2022/07/09 00:02:46;;;;;;;;;11.75;11.75;;;;;24.17;39.53;102396.03;4916797;28;45550;-47
2022/07/09 00:05:13;;;;;;;;;15.50;14.25;;;;;24.16;40.05;102402.25;4917854;28;50032;-47
2022/07/09 00:07:38;;;;;;;;;11.25;9.75;;;;;24.16;40.07;102395.16;4917963;28;45876;-48
2022/07/09 00:10:04;;;;;;;;;18.00;15.00;;;;;24.17;40.01;102398.69;4918022;28;45427;-49
2022/07/09 00:12:29;;;;;;;;;16.75;15.75;;;;;24.14;39.84;102388.22;4918226;28;45463;-49
2022/07/09 00:14:55;;;;;;;;;12.25;7.25;;;;;24.16;40.34;102397.81;4917817;28;53030;-47
2022/07/09 00:17:21;;;;;;;;;19.50;16.00;;;;;24.15;40.11;102396.06;4918408;28;45252;-46
2022/07/09 00:19:46;;;;;;;;;20.75;16.75;;;;;24.14;40.37;102399.69;4917838;28;45361;-49
2022/07/09 00:22:11;;;;;;;;;16.25;16.00;;;;;24.14;40.25;102396.16;4918145;28;45504;-48
2022/07/09 00:24:37;;;;;;;;;13.25;13.25;;;;;24.13;40.51;102397.09;4917346;28;54292;-45
2022/07/09 00:27:02;;;;;;;;;18.25;16.75;;;;;24.12;40.51;102384.78;4919403;28;45340;-48
2022/07/09 00:29:27;;;;;;;;;16.50;14.25;;;;;24.11;40.38;102394.53;4920829;28;45412;-53
2022/07/09 00:31:53;;;;;;;;;11.75;10.75;;;;;24.11;40.17;102389.22;4921820;28;45376;-51
2022/07/09 00:34:18;;;;;;;;;10.33;9.33;;;;;24.09;40.84;102386.63;4920429;28;64054;-47
2022/07/09 00:36:43;;;;;;;;;11.50;11.00;;;;;24.10;40.56;102387.50;4920776;28;45344;-55
2022/07/09 00:39:09;;;;;;;;;8.75;8.75;;;;;24.09;40.52;102386.63;4921160;28;45300;-50
2022/07/09 00:41:34;;;;;;;;;11.00;9.25;;;;;24.09;40.84;102386.63;4921209;28;45509;-48
2022/07/09 00:44:00;;;;;;;;;12.00;9.25;;;;;24.09;40.96;102378.69;4920957;28;46073;-51
2022/07/09 00:46:25;;;;;;;;;8.25;8.25;;;;;24.09;40.74;102375.19;4920848;28;45246;-55
2022/07/09 00:48:51;;;;;;;;;7.75;7.00;;;;;24.10;40.91;102376.91;4921437;28;45349;-55
2022/07/09 00:51:20;;;;;;;;;10.75;8.00;;;;;24.09;40.61;102377.84;4921229;28;45622;-53
2022/07/09 00:53:46;;;;;;;;;9.25;7.50;;;;;24.09;40.59;102383.13;4920601;28;47013;-54
2022/07/09 00:56:12;;;;;;;;;9.00;6.75;;;;;24.08;40.35;102379.63;4920896;28;45898;-54
2022/07/09 00:58:38;;;;;;;;;9.75;7.25;;;;;24.08;41.04;102384.06;4903515;28;45382;-49
2022/07/09 01:01:06;;;;;;;;;6.00;6.00;;;;;24.07;41.12;102372.63;4921226;28;45568;-51
2022/07/09 01:03:31;;;;;;;;;6.00;6.00;;;;;24.08;40.56;102374.34;4920481;28;45427;-49
2022/07/09 01:05:57;;;;;;;;;6.00;5.75;;;;;24.07;40.89;102375.25;4920834;28;45419;-51
2022/07/09 01:08:23;;;;;;;;;8.00;8.00;;;;;24.06;41.00;102376.19;4921219;28;45482;-51
2022/07/09 01:10:51;;;;;;;;;7.50;7.00;;;;;24.07;41.23;102377.91;4920723;28;45501;-49
2022/07/09 01:13:17;;;;;;;;;6.25;6.25;;;;;24.07;40.78;102367.31;4903426;28;47355;-50
2022/07/09 01:15:42;;;;;;;;;5.25;4.50;;;;;24.07;41.06;102364.66;4903212;28;45316;-54
2022/07/09 01:18:11;;;;;;;;;5.00;5.00;;;;;24.06;41.15;102365.59;4920726;28;45395;-48
2022/07/09 01:20:37;;;;;;;;;7.00;6.00;;;;;24.06;41.12;102359.41;4903491;28;45608;-52
2022/07/09 01:23:02;;;;;;;;;7.00;6.00;;;;;24.05;40.67;102363.00;4920337;28;46278;-53
2022/07/09 01:25:34;;;;;;;;;5.00;5.00;;;;;24.05;41.19;102366.53;4920151;28;45366;-56
2022/07/09 01:27:59;;;;;;;;;6.00;6.00;;;;;24.02;41.28;102356.06;4920399;28;45659;-54
2022/07/09 01:30:26;;;;;;;;;6.00;6.00;;;;;24.03;41.47;102354.28;4920444;28;45434;-49
2022/07/09 01:32:53;;;;;;;;;7.00;6.00;;;;;24.02;41.29;102356.06;4903777;28;46107;-51
2022/07/09 01:35:19;;;;;;;;;7.50;6.00;;;;;24.01;41.29;102357.00;4903293;28;45884;-47
2022/07/09 01:37:44;;;;;;;;;5.25;5.25;;;;;24.00;41.44;102352.63;4919894;28;45512;-50
2022/07/09 01:40:10;;;;;;;;;6.25;5.00;;;;;24.00;40.90;102355.28;4920632;28;45363;-54
2022/07/09 01:42:35;;;;;;;;;9.75;7.75;;;;;24.00;40.97;102360.56;4919850;28;46224;-51
2022/07/09 01:45:01;;;;;;;;;6.75;6.75;;;;;23.98;41.17;102356.28;4920333;28;45313;-53
2022/07/09 01:47:26;;;;;;;;;7.00;7.00;;;;;23.95;41.17;102349.34;4920139;28;45368;-49
2022/07/09 01:49:51;;;;;;;;;6.50;5.75;;;;;23.95;41.37;102346.69;4903524;28;45485;-49
2022/07/09 01:52:17;;;;;;;;;5.75;5.00;;;;;23.92;41.59;102347.66;4918864;28;46104;-48
2022/07/09 01:54:42;;;;;;;;;9.00;8.25;;;;;23.94;41.19;102344.94;4919741;28;45498;-49
2022/07/09 01:57:07;;;;;;;;;6.75;5.00;;;;;23.93;41.22;102345.88;4920156;28;45263;-47
2022/07/09 01:59:33;;;;;;;;;7.25;6.00;;;;;23.92;41.70;102347.66;4920081;28;45566;-50
2022/07/09 02:01:58;;;;;;;;;7.50;7.50;;;;;23.92;41.64;102341.50;4919732;28;46340;-45
2022/07/09 02:04:23;;;;;;;;;6.00;6.00;;;;;23.90;41.74;102335.41;4920260;28;45408;-47
2022/07/09 02:06:49;;;;;;;;;6.33;6.33;;;;;23.90;41.93;102325.69;4919488;28;49832;-49
2022/07/09 02:09:14;;;;;;;;;6.00;6.00;;;;;23.89;41.74;102331.91;4919760;28;48774;-49
2022/07/09 02:11:39;;;;;;;;;6.00;6.00;;;;;23.89;41.91;102325.75;4919499;28;46909;-46
2022/07/09 02:14:05;;;;;;;;;7.00;6.00;;;;;23.90;41.85;102327.47;4919817;28;45210;-48
2022/07/09 02:16:30;;;;;;;;;9.75;7.25;;;;;23.88;41.81;102322.25;4919787;28;45239;-49
2022/07/09 02:18:55;;;;;;;;;9.00;8.00;;;;;23.88;41.62;102329.31;4919792;28;45442;-47
2022/07/09 02:21:21;;;;;;;;;7.00;7.00;;;;;23.86;41.67;102325.91;4919903;28;51134;-46
2022/07/09 02:23:47;;;;;;;;;6.25;6.25;;;;;23.84;41.57;102315.38;4919302;28;45316;-50
2022/07/09 02:26:12;;;;;;;;;9.00;7.75;;;;;23.85;41.64;102318.91;4919782;28;45192;-50
2022/07/09 02:28:37;;;;;;;;;5.25;5.25;;;;;23.83;41.61;102311.00;4919476;28;45406;-45
2022/07/09 02:31:03;;;;;;;;;6.75;6.75;;;;;23.83;42.06;102310.16;4919502;28;46117;-47
2022/07/09 02:33:30;;;;;;;;;8.00;8.00;;;;;23.83;41.87;102320.75;4919202;28;45243;-47
2022/07/09 02:35:55;;;;;;;;;7.00;7.00;;;;;23.80;41.66;102303.22;4919704;28;45393;-47
2022/07/09 02:38:21;;;;;;;;;7.25;7.25;;;;;23.81;41.75;102312.00;4919904;28;45423;-47
2022/07/09 02:40:47;;;;;;;;;9.25;7.50;;;;;23.79;41.91;102304.16;4919049;28;46251;-47
2022/07/09 02:43:12;;;;;;;;;8.00;8.00;;;;;23.80;41.80;102305.00;4919333;28;45419;-48
2022/07/09 02:45:37;;;;;;;;;7.25;7.25;;;;;23.80;41.51;102305.00;4902071;28;45349;-46
2022/07/09 02:48:03;;;;;;;;;9.25;8.00;;;;;23.78;41.65;102305.91;4919071;28;48499;-48
2022/07/09 02:50:28;;;;;;;;;7.25;7.25;;;;;23.77;41.83;102300.72;4900849;28;48163;-50
2022/07/09 02:52:53;;;;;;;;;7.00;6.00;;;;;23.74;41.70;102308.78;4919425;28;45352;-48
2022/07/09 02:55:19;;;;;;;;;7.00;7.00;;;;;23.74;41.98;102301.72;4919438;28;45780;-48
2022/07/09 02:57:44;;;;;;;;;8.25;8.25;;;;;23.74;41.85;102312.31;4919268;28;45263;-47
2022/07/09 03:00:10;;;;;;;;;7.67;7.67;;;;;23.72;42.15;102314.16;4901506;28;59020;-52
2022/07/09 03:02:35;;;;;;;;;10.75;8.00;;;;;23.70;42.38;102308.06;4918799;28;45327;-51
2022/07/09 03:05:01;;;;;;;;;2.50;2.25;;;;;23.70;42.27;102310.72;4919193;28;45336;-45
2022/07/09 03:07:26;;;;;;;;;7.00;7.00;;;;;23.70;42.41;102308.06;4918989;28;45157;-51
2022/07/09 03:09:51;;;;;;;;;9.00;7.00;;;;;23.70;42.01;102310.72;4918762;28;58146;-47
2022/07/09 03:12:17;;;;;;;;;8.75;7.25;;;;;23.71;42.08;102319.50;4918565;28;45246;-54
2022/07/09 03:14:42;;;;;;;;;7.00;7.00;;;;;23.70;42.17;102318.66;4918792;28;45233;-45
2022/07/09 03:17:07;;;;;;;;;6.25;6.25;;;;;23.71;42.07;102312.44;4919201;28;45359;-47
2022/07/09 03:19:33;;;;;;;;;6.75;6.75;;;;;23.72;42.11;102314.16;4918489;28;46202;-46
2022/07/09 03:21:58;;;;;;;;;5.50;5.50;;;;;23.72;42.34;102314.16;4918816;28;45272;-50
2022/07/09 03:24:23;;;;;;;;;7.50;6.00;;;;;23.70;42.29;102316.00;4919080;28;45519;-50
2022/07/09 03:26:49;;;;;;;;;7.00;6.25;;;;;23.70;42.13;102312.53;4918750;28;45528;-51
2022/07/09 03:29:14;;;;;;;;;10.25;7.25;;;;;23.70;42.21;102325.75;4918558;28;46132;-55
2022/07/09 03:31:40;;;;;;;;;9.00;7.50;;;;;23.70;42.09;102318.66;4918478;28;45318;-53
2022/07/09 03:34:05;;;;;;;;;6.75;6.75;;;;;23.69;42.32;102319.59;4918894;28;45395;-51
2022/07/09 03:36:31;;;;;;;;;8.00;7.00;;;;;23.68;42.18;102320.50;4918610;28;45376;-53
2022/07/09 03:38:56;;;;;;;;;5.75;5.75;;;;;23.67;42.21;102321.44;4918431;28;46768;-55
2022/07/09 03:41:22;;;;;;;;;8.75;8.00;;;;;23.68;42.49;102331.09;4918788;28;45315;-54
2022/07/09 03:43:47;;;;;;;;;9.50;8.00;;;;;23.67;42.47;102324.09;4918178;28;48294;-56
2022/07/09 03:46:12;;;;;;;;;7.00;7.00;;;;;23.67;42.73;102326.72;4918839;28;45378;-51
2022/07/09 03:48:38;;;;;;;;;6.00;6.00;;;;;23.67;42.69;102324.09;4918146;28;46174;-46
2022/07/09 03:51:03;;;;;;;;;8.00;8.00;;;;;23.68;42.45;102325.81;4917975;28;45336;-49
2022/07/09 03:53:28;;;;;;;;;7.00;7.00;;;;;23.66;42.47;102325.00;4918188;28;45461;-49
2022/07/09 03:55:54;;;;;;;;;7.50;7.50;;;;;23.68;42.44;102327.59;4918741;28;45591;-48
2022/07/09 03:58:19;;;;;;;;;7.00;7.00;;;;;23.67;42.29;102332.03;4918693;28;45908;-49
2022/07/09 04:00:45;;;;;;;;;9.00;8.00;;;;;23.67;42.80;102332.03;4920321;28;45185;-45
2022/07/09 04:03:10;;;;;;;;;7.50;7.00;;;;;23.68;42.40;102335.56;4924679;28;45189;-47
2022/07/09 04:05:35;;;;;;;;;7.25;7.25;;;;;23.68;42.43;102344.34;4924588;28;45185;-50
2022/07/09 04:08:00;;;;;;;;;8.00;8.00;;;;;23.67;42.27;102342.63;4924470;28;46079;-46
2022/07/09 04:10:26;;;;;;;;;7.00;7.00;;;;;23.68;42.33;102344.34;4924041;28;50761;-50
2022/07/09 04:12:51;;;;;;;;;8.50;7.25;;;;;23.69;42.59;102346.06;4924987;28;45333;-48
2022/07/09 04:15:17;;;;;;;;;7.50;7.50;;;;;23.70;42.77;102355.72;4924787;28;45288;-52
2022/07/09 04:17:42;;;;;;;;;9.75;8.00;;;;;23.72;42.51;102353.88;4924111;28;46263;-48
2022/07/09 04:20:08;;;;;;;;;6.00;6.00;;;;;23.72;42.29;102350.34;4924479;28;45242;-50
2022/07/09 04:22:33;;;;;;;;;7.00;7.00;;;;;23.72;42.22;102351.22;4924281;28;45319;-50
2022/07/09 04:24:59;;;;;;;;;7.50;7.50;;;;;23.70;42.43;102342.47;4924728;28;45237;-48
2022/07/09 04:27:24;;;;;;;;;7.00;7.00;;;;;23.69;42.29;102346.06;4924312;28;46966;-50
2022/07/09 04:29:50;;;;;;;;;8.75;8.75;;;;;23.68;42.61;102346.97;4924704;28;45433;-47
2022/07/09 04:32:15;;;;;;;;;6.50;6.50;;;;;23.69;42.22;102340.75;4924500;28;45405;-53
2022/07/09 04:34:41;;;;;;;;;10.00;8.00;;;;;23.66;42.53;102337.41;4923953;28;45400;-49
2022/07/09 04:37:07;;;;;;;;;8.00;6.75;;;;;23.66;42.43;102345.34;4924057;28;45397;-49
2022/07/09 04:39:32;;;;;;;;;11.50;8.00;;;;;23.62;42.39;102345.47;4923995;28;45340;-55
2022/07/09 04:41:58;;;;;;;;;7.25;6.75;;;;;23.61;42.53;102337.59;4923803;28;45380;-53
2022/07/09 04:44:23;;;;;;;;;6.50;6.50;;;;;23.61;42.49;102350.84;4924865;28;45576;-49
2022/07/09 04:46:48;;;;;;;;;6.50;6.00;;;;;23.62;42.92;102347.28;4923548;28;46698;-50
2022/07/09 04:49:14;;;;;;;;;7.00;7.00;;;;;23.63;42.68;102346.34;4924076;28;45305;-48
2022/07/09 04:51:39;;;;;;;;;7.25;7.00;;;;;23.62;42.76;102329.59;4924070;28;45762;-48
2022/07/09 04:54:04;;;;;;;;;7.00;7.00;;;;;23.61;42.65;102327.88;4924395;28;45384;-47
2022/07/09 04:56:30;;;;;;;;;7.50;6.75;;;;;23.63;42.63;102335.75;4923771;28;46369;-48
2022/07/09 04:58:56;;;;;;;;;10.50;7.50;;;;;23.63;42.67;102341.06;4923994;28;45320;-51
2022/07/09 05:01:22;;;;;;;;;6.50;6.00;;;;;23.63;42.58;102341.06;4924264;28;45234;-49
2022/07/09 05:03:49;;;;;;;;;9.00;8.25;;;;;23.60;42.38;102339.38;4923895;28;45658;-48
2022/07/09 05:06:18;;;;;;;;;6.25;6.25;;;;;23.61;42.97;102337.59;4923921;28;45336;-50
2022/07/09 05:08:44;;;;;;;;;7.75;7.75;;;;;23.60;43.05;102339.38;4923593;28;45320;-52
2022/07/09 05:11:12;;;;;;;;;8.50;7.00;;;;;23.61;43.00;102343.75;4906930;28;45351;-50
2022/07/09 05:13:39;;;;;;;;;7.25;7.25;;;;;23.62;42.77;102349.91;4920238;28;45319;-51
2022/07/09 05:16:05;;;;;;;;;9.25;8.00;;;;;23.62;43.20;102352.56;4920571;28;46262;-47
2022/07/09 05:18:30;;;;;;;;;10.25;9.00;;;;;23.62;43.01;102342.81;4920266;28;45280;-49
2022/07/09 05:20:56;;;;;;;;;6.25;6.00;;;;;23.64;43.03;102345.41;4920670;28;45339;-47
2022/07/09 05:23:22;;;;;;;;;8.75;8.75;;;;;23.64;42.68;102348.06;4921081;28;45304;-50
2022/07/09 05:25:47;;;;;;;;;8.50;8.00;;;;;23.63;43.16;102347.19;4920133;28;52155;-54
2022/07/09 05:28:13;;;;;;;;;8.25;7.50;;;;;23.65;43.27;102344.47;4919131;28;45294;-51
2022/07/09 05:30:38;;;;;;;;;9.00;7.00;;;;;23.66;42.80;102340.88;4920288;28;45301;-55
2022/07/09 05:33:04;;;;;;;;;8.33;7.33;;;;;23.65;42.80;102338.31;4920259;28;47595;-50
2022/07/09 05:35:30;;;;;;;;;7.50;7.50;;;;;23.66;43.21;102346.19;4920108;28;45461;-54
2022/07/09 05:37:55;;;;;;;;;8.25;8.00;;;;;23.66;42.77;102340.88;4920286;28;48085;-54
2022/07/09 05:40:20;;;;;;;;;7.75;7.50;;;;;23.67;43.13;102353.19;4903762;28;45378;-50
2022/07/09 05:42:46;;;;;;;;;7.25;7.25;;;;;23.67;43.02;102353.19;4920324;28;45558;-50
2022/07/09 05:45:11;;;;;;;;;8.50;7.50;;;;;23.67;42.99;102353.19;4920024;28;45360;-51
2022/07/09 05:47:37;;;;;;;;;9.25;9.25;;;;;23.68;43.00;102348.78;4920009;28;45321;-49
2022/07/09 05:50:02;;;;;;;;;8.25;6.25;;;;;23.66;42.83;102340.88;4920285;28;45286;-54
2022/07/09 05:52:28;;;;;;;;;8.75;8.25;;;;;23.66;42.86;102338.25;4920146;28;45335;-50
2022/07/09 05:54:53;;;;;;;;;9.00;7.00;;;;;23.67;43.14;102342.63;4920401;28;45291;-53
2022/07/09 05:57:18;;;;;;;;;10.00;8.75;;;;;23.66;42.90;102343.53;4920186;28;45414;-53
2022/07/09 05:59:44;;;;;;;;;8.00;8.00;;;;;23.68;42.88;102343.50;4919233;28;45375;-50
2022/07/09 06:02:09;;;;;;;;;7.50;7.50;;;;;23.66;42.99;102346.19;4918948;28;45455;-49
2022/07/09 06:04:35;;;;;;;;;10.75;9.00;;;;;23.67;43.08;102345.25;4919415;28;46942;-47
2022/07/09 06:07:00;;;;;;;;;8.25;8.25;;;;;23.68;43.12;102344.34;4919895;28;45393;-48
2022/07/09 06:09:25;;;;;;;;;10.75;9.75;;;;;23.68;42.80;102344.34;4919582;28;45266;-48
2022/07/09 06:11:50;;;;;;;;;8.50;8.50;;;;;23.69;42.88;102343.41;4903242;28;45609;-46
2022/07/09 06:14:16;;;;;;;;;9.00;8.50;;;;;23.70;43.24;102354.88;4919532;28;52795;-47
2022/07/09 06:16:42;;;;;;;;;9.00;7.75;;;;;23.70;43.17;102352.22;4919467;28;45899;-46
2022/07/09 06:19:07;;;;;;;;;11.50;10.00;;;;;23.69;43.05;102351.34;4919688;28;45308;-52
2022/07/09 06:21:33;;;;;;;;;8.75;8.50;;;;;23.70;43.03;102339.84;4919525;28;45313;-53
2022/07/09 06:23:58;;;;;;;;;9.25;7.75;;;;;23.71;43.30;102340.69;4918236;28;46264;-47
2022/07/09 06:26:23;;;;;;;;;9.00;9.00;;;;;23.71;43.30;102346.84;4919681;28;50149;-50
2022/07/09 06:28:49;;;;;;;;;12.25;10.75;;;;;23.70;42.81;102347.78;4919254;28;45386;-47
2022/07/09 06:31:14;;;;;;;;;9.00;8.75;;;;;23.72;43.41;102345.94;4919839;28;45419;-51
2022/07/09 06:33:40;;;;;;;;;14.50;11.00;;;;;23.71;43.42;102349.50;4919164;28;46164;-48
2022/07/09 06:36:05;;;;;;;;;10.25;10.00;;;;;23.71;43.57;102348.63;4919453;28;45250;-50
2022/07/09 06:38:30;;;;;;;;;9.25;9.00;;;;;23.71;43.23;102338.91;4919237;28;45329;-47
2022/07/09 06:40:56;;;;;;;;;11.25;9.25;;;;;23.72;43.44;102345.06;4919646;28;45614;-51
2022/07/09 06:43:22;;;;;;;;;11.00;9.75;;;;;23.73;43.22;102341.47;4919374;28;46125;-47
2022/07/09 06:45:47;;;;;;;;;12.00;9.00;;;;;23.73;43.16;102344.13;4919152;28;45254;-49
2022/07/09 06:48:13;;;;;;;;;9.25;9.00;;;;;23.74;43.24;102343.19;4919363;28;45280;-49
2022/07/09 06:50:38;;;;;;;;;11.25;9.00;;;;;23.74;43.30;102349.38;4919318;28;45290;-52
2022/07/09 06:53:04;;;;;;;;;8.50;8.25;;;;;23.74;43.13;102343.19;4901630;28;55924;-47
2022/07/09 06:55:30;;;;;;;;;9.75;9.00;;;;;23.75;43.06;102356.38;4918739;28;45994;-45
2022/07/09 06:57:57;;;;;;;;;9.50;8.50;;;;;23.75;43.35;102351.09;4919232;28;45426;-49
2022/07/09 07:00:23;;;;;;;;;7.50;7.00;;;;;23.76;42.72;102350.13;4919613;28;45563;-50
2022/07/09 07:02:49;;;;;;;;;9.00;9.00;;;;;23.76;43.72;102344.84;4901491;28;47837;-48
2022/07/09 07:05:14;;;;;;;;;8.25;7.25;;;;;23.78;42.84;102347.44;4918994;28;45838;-50
2022/07/09 07:07:39;;;;;;;;;8.75;8.50;;;;;23.80;43.33;102344.72;4918893;28;45348;-48
2022/07/09 07:10:05;;;;;;;;;9.00;9.00;;;;;23.81;43.03;102344.66;4919266;28;45329;-48
2022/07/09 07:12:30;;;;;;;;;10.50;9.00;;;;;23.81;43.26;102338.50;4918646;28;46005;-47
2022/07/09 07:14:56;;;;;;;;;9.00;8.75;;;;;23.82;43.20;102342.84;4918798;28;45358;-50
2022/07/09 07:17:21;;;;;;;;;10.00;10.00;;;;;23.83;43.00;102344.56;4919288;28;45415;-52
2022/07/09 07:19:46;;;;;;;;;8.00;7.50;;;;;23.84;43.23;102341.84;4918898;28;45646;-50
2022/07/09 07:22:12;;;;;;;;;7.00;7.00;;;;;23.85;43.41;102335.63;4917919;28;46262;-54
2022/07/09 07:24:37;;;;;;;;;8.75;8.75;;;;;23.87;43.00;102346.13;4918425;28;45368;-51
2022/07/09 07:27:03;;;;;;;;;9.75;8.00;;;;;23.88;43.13;102350.50;4918946;28;45339;-51
2022/07/09 07:29:28;;;;;;;;;9.25;9.25;;;;;23.89;43.33;102341.63;4918609;28;45340;-55
2022/07/09 07:31:53;;;;;;;;;8.25;8.25;;;;;23.89;42.68;102342.50;4918861;28;45965;-55
2022/07/09 07:34:22;;;;;;;;;7.25;7.25;;;;;23.92;43.07;102352.09;4918522;28;45398;-56
2022/07/09 07:36:47;;;;;;;;;8.50;8.50;;;;;23.94;42.98;102350.25;4916844;28;45344;-49
2022/07/09 07:39:13;;;;;;;;;9.00;9.00;;;;;23.95;43.01;102352.00;4918955;28;45704;-54
2022/07/09 07:41:38;;;;;;;;;8.75;8.75;;;;;23.98;42.66;102354.47;4918177;28;46156;-49
2022/07/09 07:44:03;;;;;;;;;8.75;8.75;;;;;23.98;42.48;102353.63;4918575;28;45312;-52
2022/07/09 07:46:29;;;;;;;;;7.75;6.75;;;;;23.99;42.98;102340.31;4918425;28;45317;-52
2022/07/09 07:48:54;;;;;;;;;8.25;8.25;;;;;24.00;43.00;102355.28;4918793;28;45978;-49
2022/07/09 07:51:19;;;;;;;;;8.00;7.00;;;;;24.01;42.82;102346.41;4918656;28;45519;-51
2022/07/09 07:53:45;;;;;;;;;9.50;9.25;;;;;24.02;42.58;102340.19;4918007;28;45339;-54
2022/07/09 07:56:10;;;;;;;;;8.50;8.50;;;;;24.05;42.54;102344.47;4918258;28;48848;-52
2022/07/09 07:58:35;;;;;;;;;8.00;8.00;;;;;24.04;43.01;102343.63;4918356;28;45221;-54
2022/07/09 08:01:02;;;;;;;;;7.75;7.75;;;;;24.06;42.78;102339.13;4901080;28;47102;-53
2022/07/09 08:03:27;;;;;;;;;8.00;8.00;;;;;24.06;43.07;102344.41;4900792;28;45790;-54
2022/07/09 08:05:53;;;;;;;;;6.50;6.50;;;;;24.09;42.69;102344.25;4901464;28;45264;-55
2022/07/09 08:08:18;;;;;;;;;7.00;7.00;;;;;24.11;42.85;102345.97;4918530;28;45468;-55
2022/07/09 08:10:45;;;;;;;;;8.25;7.75;;;;;24.11;42.52;102343.31;4917798;28;46057;-50
2022/07/09 08:13:12;;;;;;;;;6.00;6.00;;;;;24.10;42.31;102334.53;4918193;28;45374;-55
2022/07/09 08:15:38;;;;;;;;;9.00;7.00;;;;;24.11;42.57;102338.00;4900896;28;45350;-51
2022/07/09 08:18:03;;;;;;;;;10.50;8.00;;;;;24.11;42.28;102338.00;4918333;28;45333;-53
2022/07/09 08:20:29;;;;;;;;;8.00;7.00;;;;;24.11;42.83;102338.91;4917689;28;46163;-51
2022/07/09 08:22:54;;;;;;;;;5.00;5.00;;;;;24.13;42.20;102333.50;4918396;28;45413;-51
2022/07/09 08:25:19;;;;;;;;;8.00;8.00;;;;;24.14;42.91;102329.94;4918392;28;45838;-53
2022/07/09 08:27:45;;;;;;;;;9.50;8.75;;;;;24.14;42.59;102329.94;4917863;28;45394;-47
2022/07/09 08:30:10;;;;;;;;;8.00;7.50;;;;;24.15;42.84;102326.34;4917894;28;47891;-46
2022/07/09 08:32:36;;;;;;;;;7.25;7.00;;;;;24.15;42.44;102321.06;4917581;28;45498;-49
2022/07/09 08:35:01;;;;;;;;;7.25;7.25;;;;;24.15;42.70;102315.75;4918050;28;45253;-51
2022/07/09 08:37:27;;;;;;;;;10.00;8.25;;;;;24.14;42.48;102314.91;4917863;28;45238;-46
2022/07/09 08:39:52;;;;;;;;;8.75;7.00;;;;;24.15;42.24;102323.72;4917927;28;46324;-50
2022/07/09 08:42:17;;;;;;;;;7.00;7.00;;;;;24.17;42.53;102327.16;4917668;28;46439;-48
2022/07/09 08:44:47;;;;;;;;;8.75;8.00;;;;;24.16;42.11;102320.13;4916430;28;45381;-46
2022/07/09 08:47:14;;;;;;;;;7.25;6.75;;;;;24.17;42.16;102324.50;4918457;28;45297;-48
2022/07/09 08:49:40;;;;;;;;;6.00;6.00;;;;;24.17;42.49;102324.50;4920945;28;46489;-46
2022/07/09 08:52:06;;;;;;;;;9.25;8.00;;;;;24.17;42.00;102316.56;4920972;28;45487;-48
2022/07/09 08:54:39;;;;;;;;;7.00;7.00;;;;;24.17;42.23;102312.09;4921016;28;45355;-49
2022/07/09 08:57:05;;;;;;;;;7.25;6.00;;;;;24.19;42.41;102317.34;4921287;28;45778;-46
2022/07/09 08:59:31;;;;;;;;;7.75;7.50;;;;;24.18;42.08;102310.31;4920595;28;46143;-46
2022/07/09 09:01:56;;;;;;;;;8.00;7.00;;;;;24.20;41.81;102308.44;4920803;28;45428;-46
2022/07/09 09:04:23;;;;;;;;;6.00;6.00;;;;;24.18;42.10;102307.69;4921354;28;45295;-47
2022/07/09 09:06:50;;;;;;;;;7.00;7.00;;;;;24.19;41.82;102312.88;4920934;28;45490;-46
2022/07/09 09:09:19;;;;;;;;;7.50;7.25;;;;;24.19;41.95;102306.75;4920807;28;46572;-46
2022/07/09 09:11:49;;;;;;;;;6.50;6.00;;;;;24.19;42.33;102307.59;4920529;28;45766;-47
2022/07/09 09:14:22;;;;;;;;;7.75;6.25;;;;;24.21;41.79;102302.22;4920858;28;45367;-47
2022/07/09 09:16:47;;;;;;;;;7.25;7.25;;;;;24.22;41.70;102303.94;4920748;28;45557;-47
2022/07/09 09:19:13;;;;;;;;;6.00;6.00;;;;;24.20;42.04;102297.84;4920569;28;46024;-47
2022/07/09 09:21:38;;;;;;;;;7.00;6.00;;;;;24.22;41.61;102295.97;4920274;28;45514;-47
2022/07/09 09:24:04;;;;;;;;;7.25;7.25;;;;;24.22;41.95;102288.03;4920841;28;45344;-52
2022/07/09 09:26:30;;;;;;;;;4.00;4.00;;;;;24.22;41.63;102296.84;4920731;28;45635;-45
2022/07/09 09:29:03;;;;;;;;;5.00;5.00;;;;;24.22;41.95;102293.34;4920069;28;46829;-48
2022/07/09 09:31:33;;;;;;;;;6.25;5.00;;;;;24.22;41.38;102293.34;4920337;28;45337;-51
2022/07/09 09:34:14;;;;;;;;;5.25;4.75;;;;;24.23;41.79;102293.28;4920621;28;45303;-52
2022/07/09 09:36:47;;;;;;;;;4.75;4.75;;;;;24.22;41.83;102295.97;4920653;28;45476;-50
2022/07/09 09:39:19;;;;;;;;;4.50;4.00;;;;;24.23;41.82;102306.53;4920238;28;46449;-52
2022/07/09 09:41:50;;;;;;;;;5.00;4.00;;;;;24.24;41.33;102304.72;4920049;28;45389;-47
2022/07/09 09:44:21;;;;;;;;;6.00;4.00;;;;;24.24;41.32;102299.41;4920524;28;46184;-47
2022/07/09 09:46:47;;;;;;;;;5.25;4.75;;;;;24.24;41.16;102291.47;4919503;28;45254;-47
2022/07/09 09:49:15;;;;;;;;;3.75;3.75;;;;;24.25;41.78;102298.50;4920150;28;45327;-48
2022/07/09 09:52:01;;;;;;;;;4.00;4.00;;;;;24.25;41.75;102301.16;4902944;28;45807;-49
2022/07/09 09:54:26;;;;;;;;;5.00;5.00;;;;;24.26;41.14;102300.22;4920109;28;45406;-47
2022/07/09 09:56:53;;;;;;;;;5.50;4.50;;;;;24.26;41.29;102302.88;4920760;28;45474;-50
2022/07/09 09:59:19;;;;;;;;;5.25;5.00;;;;;24.27;41.10;102304.59;4902929;28;45372;-48
2022/07/09 10:01:45;;;;;;;;;4.75;4.75;;;;;24.27;41.68;102299.28;4919875;28;45685;-48
2022/07/09 10:04:14;;;;;;;;;4.00;4.00;;;;;24.29;41.16;102299.19;4902943;28;45400;-47
2022/07/09 10:06:40;;;;;;;;;6.00;6.00;;;;;24.28;41.19;102301.00;4920187;28;45261;-46
2022/07/09 10:09:07;;;;;;;;;3.00;3.00;;;;;24.28;41.70;102287.75;4919895;28;47151;-48
2022/07/09 10:11:46;;;;;;;;;5.25;5.00;;;;;24.28;41.61;102290.41;4919740;28;45398;-46
2022/07/09 10:14:23;;;;;;;;;6.50;6.50;;;;;24.29;41.72;102289.47;4919931;28;45340;-48
2022/07/09 10:16:48;;;;;;;;;7.00;4.50;;;;;24.30;41.28;102287.66;4919718;28;45214;-52
2022/07/09 10:19:30;;;;;;;;;6.00;6.00;;;;;24.30;41.45;102288.53;4919718;28;46053;-47
2022/07/09 10:21:57;;;;;;;;;6.25;5.25;;;;;24.32;41.51;102285.81;4919591;28;45286;-48
2022/07/09 10:24:31;;;;;;;;;7.00;6.25;;;;;24.32;41.42;102276.06;4920198;28;45507;-51
2022/07/09 10:27:10;;;;;;;;;6.50;6.50;;;;;24.32;41.28;102278.72;4920104;28;45396;-55
2022/07/09 10:29:52;;;;;;;;;5.25;5.00;;;;;24.33;41.49;102288.38;4919272;28;46072;-54
2022/07/09 10:32:31;;;;;;;;;4.75;4.25;;;;;24.33;41.66;102285.72;4919691;28;45847;-49
2022/07/09 10:35:02;;;;;;;;;5.00;5.00;;;;;24.34;41.64;102276.84;4919619;28;45352;-48
2022/07/09 10:37:44;;;;;;;;;3.00;3.00;;;;;24.35;42.10;102269.78;4919585;28;45370;-49
2022/07/09 10:40:18;;;;;;;;;5.00;5.00;;;;;24.35;41.68;102275.91;4919317;28;45986;-51
2022/07/09 10:42:56;;;;;;;;;4.75;4.75;;;;;24.36;41.93;102269.69;4901971;28;45343;-50
2022/07/09 10:45:23;;;;;;;;;7.00;6.00;;;;;24.36;41.98;102272.34;4919813;28;45225;-49
2022/07/09 10:47:53;;;;;;;;;8.00;5.00;;;;;24.37;41.64;102266.09;4919433;28;45318;-49
2022/07/09 10:50:19;;;;;;;;;7.00;5.75;;;;;24.38;42.14;102262.53;4919242;28;46363;-53
2022/07/09 10:52:45;;;;;;;;;6.00;6.00;;;;;24.39;42.11;102264.25;4918355;28;45287;-52
2022/07/09 10:55:11;;;;;;;;;8.00;4.75;;;;;24.38;42.18;102257.22;4919453;28;45391;-46
2022/07/09 10:57:36;;;;;;;;;5.00;5.00;;;;;24.39;41.74;102252.75;4919208;28;45517;-53
2022/07/09 11:00:03;;;;;;;;;5.00;5.00;;;;;24.41;42.33;102258.00;4919135;28;46386;-50
2022/07/09 11:02:28;;;;;;;;;7.00;6.00;;;;;24.41;42.16;102255.38;4918753;28;45766;-48
2022/07/09 11:04:54;;;;;;;;;6.00;6.00;;;;;24.42;41.65;102249.13;4919435;28;45256;-47
2022/07/09 11:07:24;;;;;;;;;5.00;5.00;;;;;24.43;41.83;102250.81;4919536;28;45250;-50
2022/07/09 11:09:52;;;;;;;;;6.00;5.00;;;;;24.42;42.18;102231.44;4918812;28;46691;-51
2022/07/09 11:12:19;;;;;;;;;6.00;6.00;;;;;24.44;41.79;102236.63;4918926;28;45791;-50
2022/07/09 11:14:49;;;;;;;;;9.25;5.75;;;;;24.43;42.12;102235.78;4918968;28;45335;-47
2022/07/09 11:17:20;;;;;;;;;8.00;6.00;;;;;24.44;41.90;102239.28;4919254;28;45392;-52
2022/07/09 11:19:46;;;;;;;;;5.00;5.00;;;;;24.44;41.64;102233.97;4918637;28;46613;-54